VCP71 RJGG-OBBI
Flight info
| Callsign | VCP71 |
|---|---|
| Flight time | N/A |
| Altitude | 32000 |
| Route | YME Y18 MIHOU Y38 SAPRA G585 SEL G597 AGAVO/K0846S0840 A591 IKEKA W4 HCH W200 DOVIV W55 PAMRU W34 VYK B215 VAGBI/K0891S0920 B215 LUVES/K0904S0980 B215 NIRUV W199 ALGOT V67 JSG W619 BILDA W112 PURPA/N0492F400 G325 ZB G202 PAROD A453 OGOGO Z627 RANRU L717 PEKES A453 SOLOB L768 ORDIG |
| Aircraft | A346/H-SDE2E3FGHIJ3J4J5M1RWXY/LB1D1 |
Departure
| Time | N/A |
|---|---|
| Airport | Chubu Centrair International Airport (RJGG) |
Arrival
| Time | 2026-03-20 23:05 |
|---|---|
| Airport | Bahrain International Airport (OBBI) |
| Time | Latitude | Longitude | Altitude | Speed | Heading |
|---|---|---|---|---|---|
| 2026-03-20 21:13 | 30.07261 | 61.28021 | 39154 ft | 402 kts | 257° |
| 2026-03-20 21:14 | 30.06661 | 61.24894 | 39282 ft | 402 kts | 257° |
| 2026-03-20 21:14 | 30.06047 | 61.21697 | 39374 ft | 404 kts | 257° |
| 2026-03-20 21:14 | 30.05441 | 61.18562 | 39534 ft | 404 kts | 257° |
| 2026-03-20 21:14 | 30.04824 | 61.15372 | 39655 ft | 405 kts | 257° |
| 2026-03-20 21:15 | 30.03592 | 61.09009 | 39846 ft | 406 kts | 257° |
| 2026-03-20 21:15 | 30.02347 | 61.02594 | 39849 ft | 408 kts | 257° |
| 2026-03-20 21:16 | 30.01033 | 60.96265 | 39851 ft | 407 kts | 256° |
| 2026-03-20 21:16 | 29.99650 | 60.89936 | 39908 ft | 408 kts | 256° |
| 2026-03-20 21:17 | 29.98271 | 60.83585 | 39912 ft | 409 kts | 256° |
| 2026-03-20 21:17 | 29.96724 | 60.77352 | 39943 ft | 408 kts | 250° |
| 2026-03-20 21:18 | 29.94265 | 60.71433 | 39943 ft | 410 kts | 241° |
| 2026-03-20 21:18 | 29.90917 | 60.66087 | 39948 ft | 415 kts | 232° |
| 2026-03-20 21:19 | 29.86733 | 60.61459 | 39982 ft | 421 kts | 223° |
| 2026-03-20 21:19 | 29.82028 | 60.57359 | 40008 ft | 422 kts | 223° |
| 2026-03-20 21:20 | 29.77286 | 60.53293 | 40003 ft | 422 kts | 223° |
| 2026-03-20 21:20 | 29.72553 | 60.49249 | 40008 ft | 422 kts | 222° |
| 2026-03-20 21:21 | 29.67842 | 60.45231 | 40015 ft | 422 kts | 222° |
| 2026-03-20 21:21 | 29.63129 | 60.41223 | 40021 ft | 422 kts | 222° |
| 2026-03-20 21:22 | 29.58421 | 60.37219 | 40024 ft | 422 kts | 222° |
| 2026-03-20 21:22 | 29.53660 | 60.33176 | 40043 ft | 422 kts | 222° |
| 2026-03-20 21:23 | 29.48944 | 60.29180 | 40032 ft | 422 kts | 221° |
| 2026-03-20 21:23 | 29.44209 | 60.25170 | 40038 ft | 423 kts | 222° |
| 2026-03-20 21:24 | 29.39497 | 60.21184 | 40043 ft | 423 kts | 222° |
| 2026-03-20 21:24 | 29.34742 | 60.17170 | 40037 ft | 423 kts | 222° |
| 2026-03-20 21:25 | 29.29996 | 60.13167 | 40038 ft | 423 kts | 222° |
| 2026-03-20 21:25 | 29.25249 | 60.09162 | 40032 ft | 422 kts | 222° |
| 2026-03-20 21:26 | 29.20534 | 60.05196 | 40010 ft | 422 kts | 222° |
| 2026-03-20 21:26 | 29.15796 | 60.01214 | 39994 ft | 422 kts | 221° |
| 2026-03-20 21:27 | 29.11067 | 59.97244 | 39996 ft | 422 kts | 221° |
| 2026-03-20 21:27 | 29.06347 | 59.93210 | 39969 ft | 420 kts | 225° |
| 2026-03-20 21:28 | 29.02028 | 59.88732 | 39954 ft | 416 kts | 230° |
| 2026-03-20 21:28 | 28.98207 | 59.83778 | 39921 ft | 413 kts | 236° |
| 2026-03-20 21:29 | 28.94910 | 59.78406 | 39949 ft | 410 kts | 242° |
| 2026-03-20 21:29 | 28.92087 | 59.72791 | 39939 ft | 409 kts | 244° |
| 2026-03-20 21:30 | 28.89315 | 59.67179 | 39901 ft | 409 kts | 243° |
| 2026-03-20 21:30 | 28.86516 | 59.61505 | 39959 ft | 409 kts | 243° |
| 2026-03-20 21:31 | 28.83746 | 59.55884 | 39945 ft | 408 kts | 243° |
| 2026-03-20 21:31 | 28.80970 | 59.50262 | 39927 ft | 408 kts | 244° |
| 2026-03-20 21:32 | 28.78165 | 59.44583 | 39924 ft | 409 kts | 243° |
| 2026-03-20 21:32 | 28.75383 | 59.38954 | 39893 ft | 410 kts | 243° |
| 2026-03-20 21:33 | 28.72572 | 59.33289 | 39942 ft | 410 kts | 243° |
| 2026-03-20 21:34 | 28.68362 | 59.24802 | 39916 ft | 407 kts | 243° |
| 2026-03-20 21:34 | 28.65572 | 59.19183 | 39935 ft | 408 kts | 243° |
| 2026-03-20 21:35 | 28.62752 | 59.13515 | 39906 ft | 409 kts | 244° |
| 2026-03-20 21:35 | 28.59939 | 59.07867 | 39944 ft | 407 kts | 243° |
| 2026-03-20 21:36 | 28.57139 | 59.02259 | 39930 ft | 408 kts | 244° |
| 2026-03-20 21:36 | 28.54339 | 58.96655 | 39930 ft | 407 kts | 243° |
| 2026-03-20 21:37 | 28.51541 | 58.91063 | 39965 ft | 408 kts | 243° |
| 2026-03-20 21:37 | 28.48721 | 58.85446 | 39913 ft | 407 kts | 244° |
| 2026-03-20 21:38 | 28.45923 | 58.79862 | 39961 ft | 408 kts | 243° |
| 2026-03-20 21:38 | 28.43097 | 58.74241 | 39993 ft | 408 kts | 244° |
| 2026-03-20 21:39 | 28.40294 | 58.68667 | 40007 ft | 407 kts | 243° |
| 2026-03-20 21:39 | 28.37471 | 58.63070 | 40005 ft | 409 kts | 243° |
| 2026-03-20 21:40 | 28.34649 | 58.57476 | 40021 ft | 409 kts | 243° |
| 2026-03-20 21:40 | 28.31793 | 58.51828 | 40031 ft | 409 kts | 244° |
| 2026-03-20 21:41 | 28.28972 | 58.46243 | 39994 ft | 408 kts | 243° |
| 2026-03-20 21:41 | 28.26137 | 58.40663 | 39990 ft | 409 kts | 244° |
| 2026-03-20 21:42 | 28.23275 | 58.35057 | 40002 ft | 409 kts | 243° |
| 2026-03-20 21:42 | 28.18985 | 58.26681 | 39968 ft | 410 kts | 243° |
| 2026-03-20 21:43 | 28.16131 | 58.21113 | 39960 ft | 410 kts | 243° |
| 2026-03-20 21:43 | 28.13258 | 58.15516 | 39961 ft | 410 kts | 243° |
| 2026-03-20 21:44 | 28.10377 | 58.09914 | 39957 ft | 411 kts | 243° |
| 2026-03-20 21:44 | 28.07495 | 58.04319 | 39947 ft | 412 kts | 243° |
| 2026-03-20 21:45 | 28.04617 | 57.98735 | 39942 ft | 412 kts | 243° |
| 2026-03-20 21:45 | 28.01711 | 57.93105 | 39935 ft | 412 kts | 243° |
| 2026-03-20 21:46 | 27.98827 | 57.87531 | 39935 ft | 412 kts | 243° |
| 2026-03-20 21:46 | 27.95920 | 57.81915 | 39932 ft | 411 kts | 243° |
| 2026-03-20 21:47 | 27.93020 | 57.76320 | 39955 ft | 411 kts | 243° |
| 2026-03-20 21:47 | 27.90134 | 57.70764 | 39957 ft | 409 kts | 244° |
| 2026-03-20 21:48 | 27.87260 | 57.65229 | 39957 ft | 409 kts | 243° |
| 2026-03-20 21:48 | 27.84349 | 57.59635 | 39981 ft | 410 kts | 243° |
| 2026-03-20 21:49 | 27.81466 | 57.54108 | 40003 ft | 410 kts | 243° |
| 2026-03-20 21:49 | 27.78556 | 57.48535 | 39981 ft | 410 kts | 244° |
| 2026-03-20 21:50 | 27.75657 | 57.42986 | 39985 ft | 410 kts | 244° |
| 2026-03-20 21:50 | 27.72759 | 57.37448 | 39956 ft | 409 kts | 243° |
| 2026-03-20 21:51 | 27.69836 | 57.31867 | 39962 ft | 409 kts | 244° |
| 2026-03-20 21:51 | 27.66946 | 57.26313 | 39951 ft | 407 kts | 244° |
| 2026-03-20 21:52 | 27.64076 | 57.20798 | 39956 ft | 408 kts | 243° |
| 2026-03-20 21:52 | 27.61178 | 57.15256 | 39956 ft | 407 kts | 244° |
| 2026-03-20 21:53 | 27.58304 | 57.09757 | 39966 ft | 407 kts | 244° |
| 2026-03-20 21:53 | 27.55439 | 57.04281 | 39957 ft | 408 kts | 243° |
| 2026-03-20 21:54 | 27.52542 | 56.98763 | 39958 ft | 407 kts | 243° |
| 2026-03-20 21:54 | 27.49666 | 56.93282 | 39963 ft | 406 kts | 243° |
| 2026-03-20 21:55 | 27.46795 | 56.87829 | 39942 ft | 406 kts | 243° |
| 2026-03-20 21:55 | 27.43925 | 56.82373 | 39909 ft | 405 kts | 243° |
| 2026-03-20 21:56 | 27.41061 | 56.76941 | 39905 ft | 405 kts | 243° |
| 2026-03-20 21:56 | 27.38156 | 56.71441 | 39907 ft | 406 kts | 244° |
| 2026-03-20 21:57 | 27.35296 | 56.66029 | 39904 ft | 405 kts | 244° |
| 2026-03-20 21:57 | 27.32405 | 56.60560 | 39905 ft | 405 kts | 243° |
| 2026-03-20 21:58 | 27.29510 | 56.55109 | 39898 ft | 402 kts | 244° |
| 2026-03-20 21:58 | 27.26668 | 56.49750 | 39892 ft | 403 kts | 243° |
| 2026-03-20 21:59 | 27.23768 | 56.44318 | 39892 ft | 404 kts | 243° |
| 2026-03-20 21:59 | 27.20558 | 56.39081 | 39888 ft | 405 kts | 239° |
| 2026-03-20 22:00 | 27.16951 | 56.34182 | 39887 ft | 410 kts | 234° |
| 2026-03-20 22:00 | 27.12919 | 56.29604 | 39885 ft | 412 kts | 230° |
| 2026-03-20 22:01 | 27.08760 | 56.25219 | 39876 ft | 412 kts | 230° |
| 2026-03-20 22:01 | 27.04588 | 56.20832 | 39863 ft | 411 kts | 231° |
| 2026-03-20 22:02 | 27.00456 | 56.16453 | 39866 ft | 411 kts | 231° |
| 2026-03-20 22:02 | 26.96294 | 56.12003 | 39870 ft | 411 kts | 230° |
| 2026-03-20 22:03 | 26.92153 | 56.07590 | 39873 ft | 411 kts | 231° |
| 2026-03-20 22:03 | 26.88027 | 56.03201 | 39860 ft | 409 kts | 230° |
| 2026-03-20 22:04 | 26.83896 | 55.98774 | 39859 ft | 407 kts | 234° |
| 2026-03-20 22:04 | 26.80503 | 55.93762 | 39862 ft | 398 kts | 245° |
| 2026-03-20 22:05 | 26.78195 | 55.88186 | 39849 ft | 391 kts | 255° |
| 2026-03-20 22:05 | 26.76991 | 55.82309 | 39868 ft | 389 kts | 264° |
| 2026-03-20 22:06 | 26.76839 | 55.76250 | 39854 ft | 389 kts | 270° |
| 2026-03-20 22:06 | 26.76967 | 55.70199 | 39853 ft | 390 kts | 270° |
| 2026-03-20 22:07 | 26.77110 | 55.64172 | 39858 ft | 389 kts | 270° |
| 2026-03-20 22:07 | 26.77266 | 55.58101 | 39856 ft | 390 kts | 270° |
| 2026-03-20 22:08 | 26.77424 | 55.52030 | 39860 ft | 388 kts | 271° |
| 2026-03-20 22:08 | 26.77585 | 55.46006 | 39870 ft | 388 kts | 271° |
| 2026-03-20 22:09 | 26.77742 | 55.39941 | 39874 ft | 389 kts | 271° |
| 2026-03-20 22:09 | 26.77891 | 55.33933 | 39870 ft | 389 kts | 270° |
| 2026-03-20 22:10 | 26.78047 | 55.27812 | 39879 ft | 389 kts | 271° |
| 2026-03-20 22:10 | 26.78190 | 55.21806 | 39863 ft | 388 kts | 271° |
| 2026-03-20 22:11 | 26.78338 | 55.15756 | 39864 ft | 389 kts | 270° |
| 2026-03-20 22:11 | 26.78483 | 55.09694 | 39861 ft | 389 kts | 270° |
| 2026-03-20 22:12 | 26.78619 | 55.03677 | 39882 ft | 388 kts | 270° |
| 2026-03-20 22:12 | 26.78759 | 54.97600 | 39871 ft | 387 kts | 270° |
| 2026-03-20 22:13 | 26.78891 | 54.91595 | 39874 ft | 387 kts | 270° |
| 2026-03-20 22:13 | 26.79022 | 54.85559 | 39869 ft | 388 kts | 270° |
| 2026-03-20 22:14 | 26.79144 | 54.79547 | 39876 ft | 387 kts | 271° |
| 2026-03-20 22:14 | 26.79266 | 54.73511 | 39876 ft | 388 kts | 270° |
| 2026-03-20 22:15 | 26.79381 | 54.67448 | 39879 ft | 388 kts | 270° |
| 2026-03-20 22:15 | 26.79493 | 54.61431 | 39879 ft | 387 kts | 270° |
| 2026-03-20 22:16 | 26.79612 | 54.55425 | 39880 ft | 386 kts | 270° |
| 2026-03-20 22:16 | 26.79721 | 54.49442 | 39886 ft | 387 kts | 270° |
| 2026-03-20 22:17 | 26.79828 | 54.43401 | 39884 ft | 386 kts | 270° |
| 2026-03-20 22:17 | 26.79932 | 54.37432 | 39881 ft | 386 kts | 270° |
| 2026-03-20 22:18 | 26.80032 | 54.31457 | 39881 ft | 386 kts | 270° |
| 2026-03-20 22:18 | 26.80127 | 54.25431 | 39879 ft | 387 kts | 270° |
| 2026-03-20 22:19 | 26.80217 | 54.19456 | 39873 ft | 386 kts | 270° |
| 2026-03-20 22:19 | 26.80309 | 54.13406 | 39874 ft | 385 kts | 269° |
| 2026-03-20 22:20 | 26.80398 | 54.07439 | 39883 ft | 385 kts | 270° |
| 2026-03-20 22:20 | 26.80482 | 54.01425 | 39881 ft | 385 kts | 270° |
| 2026-03-20 22:21 | 26.80563 | 53.95393 | 39880 ft | 385 kts | 270° |
| 2026-03-20 22:21 | 26.80642 | 53.89404 | 39880 ft | 385 kts | 270° |
| 2026-03-20 22:22 | 26.80719 | 53.83410 | 39879 ft | 386 kts | 270° |
| 2026-03-20 22:22 | 26.80794 | 53.77441 | 39870 ft | 386 kts | 270° |
| 2026-03-20 22:23 | 26.80865 | 53.71406 | 39886 ft | 387 kts | 270° |
| 2026-03-20 22:23 | 26.80934 | 53.65387 | 39891 ft | 388 kts | 270° |
| 2026-03-20 22:24 | 26.81002 | 53.59402 | 39888 ft | 386 kts | 269° |
| 2026-03-20 22:24 | 26.81062 | 53.53433 | 39889 ft | 386 kts | 270° |
| 2026-03-20 22:25 | 26.81120 | 53.47414 | 39883 ft | 386 kts | 270° |
| 2026-03-20 22:25 | 26.81180 | 53.41460 | 39872 ft | 384 kts | 270° |
| 2026-03-20 22:26 | 26.81155 | 53.35523 | 39856 ft | 370 kts | 267° |
| 2026-03-20 22:26 | 26.80788 | 53.29844 | 39862 ft | 365 kts | 265° |
| 2026-03-20 22:27 | 26.80366 | 53.24209 | 39853 ft | 369 kts | 265° |
| 2026-03-20 22:27 | 26.79928 | 53.18386 | 39847 ft | 377 kts | 265° |
| 2026-03-20 22:28 | 26.79484 | 53.12534 | 39849 ft | 381 kts | 265° |
| 2026-03-20 22:28 | 26.79028 | 53.06639 | 39845 ft | 380 kts | 264° |
| 2026-03-20 22:29 | 26.78566 | 53.00730 | 39847 ft | 381 kts | 265° |
| 2026-03-20 22:29 | 26.78101 | 52.94807 | 39837 ft | 383 kts | 265° |
| 2026-03-20 22:30 | 26.77636 | 52.88857 | 39847 ft | 384 kts | 265° |
| 2026-03-20 22:30 | 26.77161 | 52.82873 | 39843 ft | 384 kts | 265° |
| 2026-03-20 22:31 | 26.76691 | 52.76934 | 39845 ft | 383 kts | 265° |
| 2026-03-20 22:31 | 26.76217 | 52.71000 | 39846 ft | 384 kts | 265° |
| 2026-03-20 22:32 | 26.75741 | 52.65090 | 39844 ft | 383 kts | 265° |
| 2026-03-20 22:32 | 26.75262 | 52.59175 | 39855 ft | 383 kts | 264° |
| 2026-03-20 22:33 | 26.74777 | 52.53247 | 39852 ft | 382 kts | 265° |
| 2026-03-20 22:34 | 26.74055 | 52.44374 | 39856 ft | 382 kts | 265° |
| 2026-03-20 22:34 | 26.73567 | 52.38482 | 39854 ft | 380 kts | 265° |
| 2026-03-20 22:35 | 26.73071 | 52.32576 | 39863 ft | 381 kts | 264° |
| 2026-03-20 22:35 | 26.72581 | 52.26687 | 39848 ft | 380 kts | 264° |
| 2026-03-20 22:36 | 26.72088 | 52.20797 | 39870 ft | 379 kts | 264° |
| 2026-03-20 22:36 | 26.71590 | 52.14944 | 39865 ft | 379 kts | 264° |
| 2026-03-20 22:37 | 26.71081 | 52.09080 | 39855 ft | 380 kts | 265° |
| 2026-03-20 22:37 | 26.70580 | 52.03207 | 39862 ft | 379 kts | 264° |
| 2026-03-20 22:38 | 26.69898 | 51.97390 | 39832 ft | 377 kts | 258° |
| 2026-03-20 22:38 | 26.69204 | 51.94584 | 39420 ft | 371 kts | 254° |
| 2026-03-20 22:38 | 26.68267 | 51.91924 | 39004 ft | 367 kts | 249° |
| 2026-03-20 22:38 | 26.67115 | 51.89408 | 38583 ft | 365 kts | 245° |
| 2026-03-20 22:39 | 26.65751 | 51.87044 | 38166 ft | 365 kts | 241° |
| 2026-03-20 22:39 | 26.64159 | 51.84805 | 37867 ft | 370 kts | 236° |
| 2026-03-20 22:39 | 26.62471 | 51.82666 | 37602 ft | 370 kts | 236° |
| 2026-03-20 22:39 | 26.60745 | 51.80497 | 37064 ft | 373 kts | 236° |
| 2026-03-20 22:40 | 26.59028 | 51.78363 | 36527 ft | 373 kts | 235° |
| 2026-03-20 22:40 | 26.57280 | 51.76211 | 35992 ft | 373 kts | 235° |
| 2026-03-20 22:40 | 26.55517 | 51.74054 | 35387 ft | 375 kts | 234° |
| 2026-03-20 22:40 | 26.53757 | 51.71905 | 34817 ft | 377 kts | 234° |
| 2026-03-20 22:41 | 26.51989 | 51.69754 | 34182 ft | 380 kts | 234° |
| 2026-03-20 22:41 | 26.50203 | 51.67578 | 33526 ft | 382 kts | 233° |
| 2026-03-20 22:41 | 26.48392 | 51.65373 | 32939 ft | 384 kts | 233° |
| 2026-03-20 22:41 | 26.46602 | 51.63198 | 32415 ft | 384 kts | 233° |
| 2026-03-20 22:42 | 26.44795 | 51.60997 | 31825 ft | 384 kts | 233° |
| 2026-03-20 22:42 | 26.43201 | 51.58623 | 31213 ft | 382 kts | 240° |
| 2026-03-20 22:42 | 26.41919 | 51.56036 | 30600 ft | 382 kts | 245° |
| 2026-03-20 22:42 | 26.40935 | 51.53303 | 29993 ft | 383 kts | 250° |
| 2026-03-20 22:43 | 26.40246 | 51.50432 | 29323 ft | 385 kts | 256° |
| 2026-03-20 22:43 | 26.39866 | 51.47513 | 28642 ft | 388 kts | 262° |
| 2026-03-20 22:43 | 26.39812 | 51.44485 | 27937 ft | 392 kts | 268° |
| 2026-03-20 22:43 | 26.40014 | 51.41449 | 27248 ft | 395 kts | 269° |
| 2026-03-20 22:44 | 26.40234 | 51.38408 | 26571 ft | 399 kts | 270° |
| 2026-03-20 22:44 | 26.40466 | 51.35334 | 25890 ft | 402 kts | 271° |
| 2026-03-20 22:44 | 26.40706 | 51.32228 | 25197 ft | 402 kts | 271° |
| 2026-03-20 22:44 | 26.40948 | 51.29173 | 24514 ft | 401 kts | 271° |
| 2026-03-20 22:45 | 26.41191 | 51.26089 | 23857 ft | 399 kts | 271° |
| 2026-03-20 22:45 | 26.41436 | 51.23001 | 23209 ft | 392 kts | 272° |
| 2026-03-20 22:45 | 26.41672 | 51.20053 | 22718 ft | 383 kts | 272° |
| 2026-03-20 22:45 | 26.41909 | 51.17137 | 22237 ft | 375 kts | 272° |
| 2026-03-20 22:46 | 26.42139 | 51.14269 | 21738 ft | 368 kts | 272° |
| 2026-03-20 22:46 | 26.42363 | 51.11457 | 21213 ft | 361 kts | 272° |
| 2026-03-20 22:46 | 26.42580 | 51.08688 | 20725 ft | 355 kts | 272° |
| 2026-03-20 22:46 | 26.42789 | 51.06008 | 20238 ft | 349 kts | 272° |
| 2026-03-20 22:47 | 26.43000 | 51.03329 | 19735 ft | 344 kts | 272° |
| 2026-03-20 22:47 | 26.43203 | 51.00711 | 19261 ft | 340 kts | 272° |
| 2026-03-20 22:47 | 26.43407 | 50.98104 | 18757 ft | 335 kts | 272° |
| 2026-03-20 22:47 | 26.43608 | 50.95504 | 18239 ft | 332 kts | 273° |
| 2026-03-20 22:48 | 26.43804 | 50.92985 | 17729 ft | 326 kts | 273° |
| 2026-03-20 22:48 | 26.43999 | 50.90484 | 17227 ft | 320 kts | 273° |
| 2026-03-20 22:48 | 26.44188 | 50.88062 | 16740 ft | 314 kts | 273° |
| 2026-03-20 22:48 | 26.44373 | 50.85680 | 16298 ft | 305 kts | 273° |
| 2026-03-20 22:49 | 26.44553 | 50.83343 | 16004 ft | 294 kts | 273° |
| 2026-03-20 22:49 | 26.44723 | 50.81141 | 15703 ft | 283 kts | 273° |
| 2026-03-20 22:49 | 26.44888 | 50.78992 | 15402 ft | 273 kts | 273° |
| 2026-03-20 22:50 | 26.45204 | 50.74859 | 14840 ft | 263 kts | 273° |
| 2026-03-20 22:50 | 26.45355 | 50.72860 | 14551 ft | 260 kts | 273° |
| 2026-03-20 22:50 | 26.45506 | 50.70864 | 14258 ft | 257 kts | 274° |
| 2026-03-20 22:50 | 26.45657 | 50.68888 | 13954 ft | 254 kts | 273° |
| 2026-03-20 22:51 | 26.45804 | 50.66949 | 13657 ft | 251 kts | 273° |
| 2026-03-20 22:51 | 26.45949 | 50.65025 | 13364 ft | 248 kts | 274° |
| 2026-03-20 22:51 | 26.46095 | 50.63105 | 13071 ft | 246 kts | 273° |
| 2026-03-20 22:51 | 26.46237 | 50.61224 | 12786 ft | 243 kts | 273° |
| 2026-03-20 22:52 | 26.46378 | 50.59360 | 12495 ft | 241 kts | 273° |
| 2026-03-20 22:52 | 26.46516 | 50.57509 | 12192 ft | 239 kts | 273° |
| 2026-03-20 22:52 | 26.46656 | 50.55669 | 11901 ft | 237 kts | 273° |
| 2026-03-20 22:52 | 26.46915 | 50.53866 | 11612 ft | 236 kts | 289° |
| 2026-03-20 22:53 | 26.47735 | 50.52313 | 11361 ft | 234 kts | 301° |
| 2026-03-20 22:53 | 26.48716 | 50.50850 | 11068 ft | 233 kts | 303° |
| 2026-03-20 22:53 | 26.49703 | 50.49430 | 10775 ft | 232 kts | 303° |
| 2026-03-20 22:53 | 26.50694 | 50.48012 | 10480 ft | 231 kts | 303° |
| 2026-03-20 22:54 | 26.51673 | 50.46615 | 10238 ft | 224 kts | 303° |
| 2026-03-20 22:54 | 26.52626 | 50.45260 | 9992 ft | 219 kts | 303° |
| 2026-03-20 22:54 | 26.53553 | 50.43941 | 9753 ft | 217 kts | 301° |
| 2026-03-20 22:54 | 26.54085 | 50.42419 | 9484 ft | 207 kts | 270° |
| 2026-03-20 22:55 | 26.53709 | 50.40900 | 9239 ft | 208 kts | 238° |
| 2026-03-20 22:55 | 26.52606 | 50.39823 | 9015 ft | 213 kts | 217° |
| 2026-03-20 22:55 | 26.51205 | 50.39254 | 8727 ft | 223 kts | 187° |
| 2026-03-20 22:55 | 26.49685 | 50.39698 | 8366 ft | 231 kts | 156° |
| 2026-03-20 22:56 | 26.48327 | 50.40633 | 8001 ft | 228 kts | 152° |
| 2026-03-20 22:56 | 26.46983 | 50.41541 | 7629 ft | 224 kts | 159° |
| 2026-03-20 22:56 | 26.45485 | 50.41769 | 7250 ft | 212 kts | 192° |
| 2026-03-20 22:56 | 26.44087 | 50.41329 | 6895 ft | 207 kts | 201° |
| 2026-03-20 22:57 | 26.42744 | 50.40765 | 6532 ft | 205 kts | 202° |
| 2026-03-20 22:57 | 26.41441 | 50.40181 | 6172 ft | 202 kts | 203° |
| 2026-03-20 22:57 | 26.40129 | 50.39578 | 5798 ft | 201 kts | 203° |
| 2026-03-20 22:57 | 26.38860 | 50.38991 | 5428 ft | 199 kts | 203° |
| 2026-03-20 22:58 | 26.37583 | 50.38398 | 5058 ft | 198 kts | 203° |
| 2026-03-20 22:58 | 26.36315 | 50.37811 | 4687 ft | 197 kts | 203° |
| 2026-03-20 22:58 | 26.35050 | 50.37235 | 4324 ft | 196 kts | 200° |
| 2026-03-20 22:58 | 26.33720 | 50.37175 | 3966 ft | 191 kts | 155° |
| 2026-03-20 22:59 | 26.32806 | 50.38160 | 3607 ft | 183 kts | 113° |
| 2026-03-20 22:59 | 26.32578 | 50.39492 | 3305 ft | 171 kts | 79° |
| 2026-03-20 22:59 | 26.32927 | 50.40723 | 3080 ft | 168 kts | 65° |
| 2026-03-20 22:59 | 26.33393 | 50.41922 | 2860 ft | 168 kts | 64° |
| 2026-03-20 23:00 | 26.33874 | 50.43104 | 2649 ft | 166 kts | 63° |
| 2026-03-20 23:00 | 26.34349 | 50.44266 | 2455 ft | 165 kts | 63° |
| 2026-03-20 23:00 | 26.34822 | 50.45428 | 2258 ft | 163 kts | 63° |
| 2026-03-20 23:00 | 26.35107 | 50.46653 | 2049 ft | 165 kts | 88° |
| 2026-03-20 23:01 | 26.35055 | 50.47921 | 1865 ft | 165 kts | 92° |
| 2026-03-20 23:01 | 26.34873 | 50.49179 | 1679 ft | 166 kts | 105° |
| 2026-03-20 23:01 | 26.34428 | 50.50389 | 1553 ft | 168 kts | 116° |
| 2026-03-20 23:01 | 26.33864 | 50.51539 | 1511 ft | 169 kts | 119° |
| 2026-03-20 23:02 | 26.33250 | 50.52671 | 1509 ft | 170 kts | 121° |
| 2026-03-20 23:02 | 26.32620 | 50.53779 | 1505 ft | 171 kts | 120° |
| 2026-03-20 23:02 | 26.31974 | 50.54892 | 1454 ft | 171 kts | 121° |
| 2026-03-20 23:02 | 26.31331 | 50.55992 | 1241 ft | 166 kts | 121° |
| 2026-03-20 23:03 | 26.30716 | 50.57059 | 1029 ft | 163 kts | 122° |
| 2026-03-20 23:03 | 26.30108 | 50.58115 | 822 ft | 161 kts | 122° |
| 2026-03-20 23:03 | 26.29496 | 50.59180 | 612 ft | 161 kts | 122° |
| 2026-03-20 23:03 | 26.28897 | 50.60219 | 404 ft | 161 kts | 122° |
| 2026-03-20 23:04 | 26.28294 | 50.61268 | 194 ft | 160 kts | 122° |
| 2026-03-20 23:04 | 26.27691 | 50.62310 | 38 ft | 155 kts | 122° |
| 2026-03-20 23:04 | 26.27195 | 50.63180 | 22 ft | 98 kts | 126° |
| 2026-03-20 23:04 | 26.26899 | 50.63687 | 21 ft | 52 kts | 123° |
| 2026-03-20 23:05 | 26.26798 | 50.63856 | 21 ft | 12 kts | 142° |
| 2026-03-20 23:05 | 26.26721 | 50.63852 | 21 ft | 11 kts | 207° |
| 2026-03-20 23:05 | 26.26664 | 50.63815 | 21 ft | 10 kts | 212° |
| 2026-03-20 23:05 | 26.26598 | 50.63767 | 21 ft | 10 kts | 213° |
| 2026-03-20 23:06 | 26.26574 | 50.63703 | 21 ft | 10 kts | 283° |
| 2026-03-20 23:06 | 26.26600 | 50.63636 | 21 ft | 8 kts | 292° |
| 2026-03-20 23:06 | 26.26591 | 50.63583 | 21 ft | 7 kts | 226° |
| 2026-03-20 23:06 | 26.26550 | 50.63549 | 21 ft | 6 kts | 212° |
| 2026-03-20 23:07 | 26.26546 | 50.63546 | 21 ft | 0 kts | 212° |